PAFA/FAI METAR and TAF weather

Enter ICAO airport designator
Station Type Date Time Source
PAFA METAR 2019/04/22 17:53 UTC NOAA

PAFA 221753Z 08003KT 10SM FEW050 SCT130 BKN190 08/M04 A2917 RMK AO2 SLP884 T00831039 10083 20017 58006 VISNO NE $


Station Type Date Time Source
PAFA Decoded METAR 2019/04/22 17:53 UTC NOAA

Fairbanks, Fairbanks International Airport, AK, United States (PAFA) 64-48-14N 147-52-34W 140M
Apr 22, 2019 - 01:53 PM EDT / 2019.04.22 1753 UTC
Wind: from the E (080 degrees) at 3 MPH (3 KT):0
Visibility: 10 mile(s):0
Sky conditions: mostly cloudy
Temperature: 46.9 F (8.3 C)
Dew Point: 25.0 F (-3.9 C)
Relative Humidity: 41%
Pressure (altimeter): 29.17 in. Hg (987 hPa)
Pressure tendency: 0.02 inches (0.6 hPa) lower than three hours ago
ob: PAFA 221753Z 08003KT 10SM FEW050 SCT130 BKN190 08/M04 A2917 RMK AO2 SLP884 T00831039 10083 20017 58006 VISNO NE
cycle: 18

Station Type Date Time Source
PAFA TAF 2019/04/22 18:48 UTC NOAA

TAF TAF PAFA 221738Z 2218/2324 03005KT P6SM SCT050 BKN150
FM230000 04012KT P6SM VCSH SCT025 BKN035 OVC050
FM230600 04012KT 6SM -RASN BR SCT015 BKN025 OVC035
FM231200 24010KT 4SM -SN SCT010 OVC015
FM231500 27012KT 2SM -SN SCT007 BKN010 OVC015

Example: see airport list